Portada
METAR-TAF:

METAR-TAF

Aeroports :

Hefei, Xina

latitud: 31-52N, longitud: 117-14E, altitud: 36 m

Observació

L'informe es va fer fa 41 minuts, a les 03:00 UTC
Vent 6 kt del Est, variant entre Nord/Nord-Est i Sud-Est
Temperatura 17°C
Humitat 52%
Pressió 1032 hPa
Visibilitat 10 km o més
sense núvols per sota de 1500 mi sense presència de cumulonimbus.

METAR: ZSOF 150300Z 08003MPS 030V130 CAVOK 17/07 Q1032 NOSIG

Hora: 11:41 (03:41 UTC)

Pronòstic

L'informe es va fer fa 8 hores i 39 minuts, a les 19:02 UTC
Pronòstic vàlid del 15 a les 00 UTC al 15 a les 24 UTC
Vent 8 kt del Est/Nord-Est
Visibilitat: 3000 m
calitja

TAF: ZSOF 141902Z 1500/1524 06004MPS 3000 HZ NSC TX20/1506Z TN10/1522Z

Observacions i pronòstics meteorològics de més de 4000 aeroports (METAR i TAF).

Les estacions disponibles són els punts grocs i vermells al mapa.

Posi el ratolí al punt desitjat per veure el nom de l'estació.

Feu clic per veure les observacions i els pronòstics meteorològics.

Per canviar el mapa: feu clic els botons verds amb una creu de color negre per apropar; al botó verd amb un guió per allunyar la imatge; o en les fletxes verdes per a mapes adjacents.


METAR-TAF: